createdAt,value
2023-01-19T00:00:29.283Z,99442.94
2023-01-19T00:02:56.194Z,99448.09
2023-01-19T00:05:22.784Z,99448.88
2023-01-19T00:07:49.186Z,99445.28
2023-01-19T00:10:16.015Z,99440.00
2023-01-19T00:12:42.472Z,99442.47
2023-01-19T00:15:09.422Z,99447.53
2023-01-19T00:17:35.918Z,99445.47
2023-01-19T00:20:03.794Z,99438.75
2023-01-19T00:22:30.201Z,99449.41
2023-01-19T00:24:56.633Z,99452.22
2023-01-19T00:27:23.325Z,99445.69
2023-01-19T00:29:49.757Z,99460.53
2023-01-19T00:32:17.817Z,99457.28
2023-01-19T00:34:49.224Z,99458.97
2023-01-19T00:37:17.029Z,99454.78
2023-01-19T00:39:43.643Z,99458.41
2023-01-19T00:42:31.797Z,99447.69
2023-01-19T00:44:58.330Z,99455.09
2023-01-19T00:47:25.242Z,99457.47
2023-01-19T00:49:51.672Z,99461.06
2023-01-19T00:52:18.099Z,99451.38
2023-01-19T00:54:44.478Z,99459.81
2023-01-19T00:57:11.036Z,99467.81
2023-01-19T00:59:37.430Z,99458.59
2023-01-19T01:02:04.068Z,99457.34
2023-01-19T01:04:30.641Z,99458.91
2023-01-19T01:06:57.081Z,99466.09
2023-01-19T01:09:24.193Z,99468.16
2023-01-19T01:11:50.603Z,99470.50
2023-01-19T01:14:18.119Z,99468.00
2023-01-19T01:16:44.901Z,99460.34
2023-01-19T01:19:11.366Z,99464.06
2023-01-19T01:21:38.050Z,99461.47
2023-01-19T01:24:05.085Z,99469.47
2023-01-19T01:26:31.476Z,99473.81
2023-01-19T01:28:57.907Z,99471.00
2023-01-19T01:31:24.524Z,99473.06
2023-01-19T01:33:50.954Z,99465.72
2023-01-19T01:36:20.715Z,99470.44
2023-01-19T01:38:47.264Z,99464.47
2023-01-19T01:41:13.736Z,99477.63
2023-01-19T01:43:47.341Z,99477.16
2023-01-19T01:46:15.500Z,99483.59
2023-01-19T01:48:49.618Z,99474.03
2023-01-19T01:51:25.866Z,99479.66
2023-01-19T01:54:18.935Z,99474.03
2023-01-19T01:56:49.757Z,99472.34
2023-01-19T01:59:34.702Z,99474.69
2023-01-19T02:02:41.960Z,99474.69
2023-01-19T02:05:17.008Z,99468.59
2023-01-19T02:08:06.626Z,99480.66
2023-01-19T02:10:52.363Z,99468.94
2023-01-19T02:13:23.295Z,99458.44
2023-01-19T02:15:55.073Z,99459.22
2023-01-19T02:18:24.120Z,99455.94
2023-01-19T02:21:08.711Z,99457.53
2023-01-19T02:23:39.829Z,99448.78
2023-01-19T02:26:09.469Z,99453.47
2023-01-19T02:28:40.467Z,99452.53
2023-01-19T02:31:07.015Z,99451.31
2023-01-19T02:33:33.859Z,99438.13
2023-01-19T02:36:00.725Z,99439.56
2023-01-19T02:38:28.475Z,99441.16
2023-01-19T02:40:59.261Z,99440.69
2023-01-19T02:43:27.512Z,99429.09
2023-01-19T02:45:54.433Z,99434.59
2023-01-19T02:48:21.348Z,99430.66
2023-01-19T02:50:55.971Z,99436.16
2023-01-19T02:53:59.835Z,99430.97
2023-01-19T02:56:50.609Z,99433.81
2023-01-19T02:59:33.389Z,99433.03
2023-01-19T03:02:24.556Z,99439.44
2023-01-19T03:05:28.935Z,99441.47
2023-01-19T03:08:16.656Z,99435.38
2023-01-19T03:11:03.495Z,99421.31
2023-01-19T03:13:39.350Z,99413.63
2023-01-19T03:16:13.759Z,99420.84
2023-01-19T03:18:44.893Z,99420.84
2023-01-19T03:21:13.929Z,99418.81
2023-01-19T03:23:45.239Z,99425.69
2023-01-19T03:26:18.003Z,99428.16
2023-01-19T03:28:47.379Z,99426.34
2023-01-19T03:31:19.272Z,99436.38
2023-01-19T03:33:51.406Z,99430.72
2023-01-19T03:36:25.380Z,99436.69
2023-01-19T03:38:52.837Z,99437.59
2023-01-19T03:41:22.652Z,99446.19
2023-01-19T03:43:51.892Z,99452.81
2023-01-19T03:46:20.321Z,99445.13
2023-01-19T03:48:47.957Z,99445.44
2023-01-19T03:51:16.379Z,99430.13
2023-01-19T03:53:43.131Z,99440.16
2023-01-19T03:56:18.142Z,99440.16
2023-01-19T03:58:45.027Z,99434.06
2023-01-19T04:01:11.614Z,99439.69
2023-01-19T04:03:38.120Z,99443.59
2023-01-19T04:06:04.688Z,99439.53
2023-01-19T04:08:32.434Z,99441.91
2023-01-19T04:10:59.280Z,99446.72
2023-01-19T04:13:28.114Z,99451.13
2023-01-19T04:15:54.640Z,99444.25
2023-01-19T04:18:21.144Z,99447.06
2023-01-19T04:20:47.559Z,99437.34
2023-01-19T04:23:14.196Z,99440.19
2023-01-19T04:25:40.907Z,99440.97
2023-01-19T04:28:07.351Z,99443.34
2023-01-19T04:30:33.833Z,99437.72
2023-01-19T04:33:00.607Z,99442.06
2023-01-19T04:35:27.216Z,99440.84
2023-01-19T04:37:53.669Z,99434.53
2023-01-19T04:40:20.459Z,99436.44
2023-01-19T04:42:46.909Z,99436.78
2023-01-19T04:45:14.189Z,99445.22
2023-01-19T04:47:42.608Z,99438.34
2023-01-19T04:50:10.518Z,99434.28
2023-01-19T04:52:37.056Z,99429.56
2023-01-19T04:55:05.019Z,99433.50
2023-01-19T04:57:31.910Z,99436.63
2023-01-19T04:59:59.146Z,99431.78
2023-01-19T05:02:25.831Z,99439.00
2023-01-19T05:04:52.277Z,99427.06
2023-01-19T05:07:18.995Z,99430.69
2023-01-19T05:09:45.622Z,99435.81
2023-01-19T05:12:12.253Z,99440.53
2023-01-19T05:14:38.720Z,99447.75
2023-01-19T05:17:05.191Z,99443.50
2023-01-19T05:19:31.614Z,99450.13
2023-01-19T05:21:58.206Z,99452.94
2023-01-19T05:24:24.589Z,99448.53
2023-01-19T05:26:50.981Z,99458.09
2023-01-19T05:29:17.410Z,99465.31
2023-01-19T05:31:43.911Z,99465.31
2023-01-19T05:34:11.608Z,99455.59
2023-01-19T05:36:38.030Z,99458.09
2023-01-19T05:39:04.532Z,99462.03
2023-01-19T05:41:30.935Z,99454.06
2023-01-19T05:43:57.880Z,99455.94
2023-01-19T05:46:24.349Z,99461.56
2023-01-19T05:48:51.278Z,99465.94
2023-01-19T05:51:17.689Z,99464.41
2023-01-19T05:53:44.319Z,99459.69
2023-01-19T05:56:11.548Z,99470.03
2023-01-19T05:58:41.404Z,99469.88
2023-01-19T06:01:09.940Z,99460.31
2023-01-19T06:03:37.443Z,99464.56
2023-01-19T06:06:04.489Z,99472.25
2023-01-19T06:08:31.370Z,99479.44
2023-01-19T06:10:57.795Z,99476.63
2023-01-19T06:13:24.269Z,99473.94
2023-01-19T06:15:57.435Z,99483.81
2023-01-19T06:18:23.905Z,99489.47
2023-01-19T06:20:50.454Z,99492.59
2023-01-19T06:23:16.883Z,99494.63
2023-01-19T06:25:43.438Z,99496.22
2023-01-19T06:28:09.884Z,99501.06
2023-01-19T06:30:36.613Z,99489.78
2023-01-19T06:33:03.264Z,99497.00
2023-01-19T06:35:29.813Z,99497.00
2023-01-19T06:37:56.245Z,99513.13
2023-01-19T06:40:22.713Z,99511.09
2023-01-19T06:42:49.597Z,99509.50
2023-01-19T06:45:16.335Z,99517.03
2023-01-19T06:47:42.755Z,99515.00
2023-01-19T06:50:09.749Z,99522.22
2023-01-19T06:52:42.127Z,99519.41
2023-01-19T06:55:10.815Z,99526.28
2023-01-19T06:57:40.505Z,99525.50
2023-01-19T07:00:08.974Z,99535.53
2023-01-19T07:02:36.937Z,99544.00
2023-01-19T07:05:06.633Z,99543.69
2023-01-19T07:07:33.104Z,99549.63
2023-01-19T07:09:59.598Z,99543.69
2023-01-19T07:12:26.028Z,99547.72
2023-01-19T07:14:52.746Z,99558.41
2023-01-19T07:17:19.633Z,99561.22
2023-01-19T07:19:46.675Z,99557.63
2023-01-19T07:22:13.191Z,99555.59
2023-01-19T07:24:39.649Z,99562.81
2023-01-19T07:27:06.220Z,99568.44
2023-01-19T07:29:32.619Z,99565.94
2023-01-19T07:31:59.059Z,99565.28
2023-01-19T07:34:25.547Z,99573.16
2023-01-19T07:36:52.012Z,99580.34
2023-01-19T07:39:18.450Z,99567.19
2023-01-19T07:41:44.869Z,99578.78
2023-01-19T07:44:11.266Z,99577.53
2023-01-19T07:46:37.675Z,99581.94
2023-01-19T07:49:04.096Z,99581.28
2023-01-19T07:51:30.550Z,99594.78
2023-01-19T07:53:56.954Z,99589.16
2023-01-19T07:56:24.474Z,99590.41
2023-01-19T07:58:52.330Z,99595.09
2023-01-19T08:01:18.867Z,99587.56
2023-01-19T08:03:47.694Z,99606.38
2023-01-19T08:06:22.355Z,99591.31
2023-01-19T08:08:49.259Z,99605.13
2023-01-19T08:11:15.910Z,99605.13
2023-01-19T08:13:43.400Z,99609.53
2023-01-19T08:16:09.993Z,99613.94
2023-01-19T08:18:36.556Z,99605.13
2023-01-19T08:21:03.182Z,99616.41
2023-01-19T08:23:29.568Z,99604.03
2023-01-19T08:25:56.221Z,99612.66
2023-01-19T08:28:22.977Z,99607.94
2023-01-19T08:30:55.416Z,99616.59
2023-01-19T08:33:23.633Z,99608.44
2023-01-19T08:35:52.180Z,99620.19
2023-01-19T08:38:19.288Z,99621.78
2023-01-19T08:40:45.793Z,99618.97
2023-01-19T08:43:16.919Z,99633.84
2023-01-19T08:45:49.092Z,99633.38
2023-01-19T08:48:17.752Z,99624.28
2023-01-19T08:50:47.518Z,99631.38
2023-01-19T08:53:14.907Z,99628.53
2023-01-19T08:55:41.767Z,99638.56
2023-01-19T08:58:08.795Z,99630.88
2023-01-19T09:00:40.409Z,99638.09
2023-01-19T09:03:09.129Z,99636.50
2023-01-19T09:05:38.846Z,99642.03
2023-01-19T09:08:09.612Z,99642.50
2023-01-19T09:10:38.055Z,99646.41
2023-01-19T09:13:10.904Z,99650.81
2023-01-19T09:15:38.581Z,99660.06
2023-01-19T09:18:07.598Z,99656.00
2023-01-19T09:20:38.513Z,99654.75
2023-01-19T09:23:05.308Z,99659.13
2023-01-19T09:25:32.662Z,99657.91
2023-01-19T09:28:00.389Z,99651.03
2023-01-19T09:30:27.695Z,99654.94
2023-01-19T09:32:54.292Z,99668.25
2023-01-19T09:35:21.488Z,99668.56
2023-01-19T09:37:48.281Z,99670.16
2023-01-19T09:40:18.627Z,99674.22
2023-01-19T09:42:53.075Z,99667.34
2023-01-19T09:45:27.258Z,99661.81
2023-01-19T09:47:55.205Z,99669.25
2023-01-19T09:50:35.173Z,99671.72
2023-01-19T09:53:13.803Z,99671.72
2023-01-19T09:55:42.556Z,99682.41
2023-01-19T09:58:18.973Z,99688.06
2023-01-19T10:00:52.967Z,99682.41
2023-01-19T10:03:20.682Z,99689.47
2023-01-19T10:05:53.518Z,99694.66
2023-01-19T10:09:00.994Z,99684.63
2023-01-19T10:11:51.864Z,99686.53
2023-01-19T10:14:36.459Z,99699.38
2023-01-19T10:17:18.223Z,99694.41
2023-01-19T10:19:49.593Z,99700.81
2023-01-19T10:22:24.772Z,99697.06
2023-01-19T10:25:01.585Z,99691.88
2023-01-19T10:27:34.176Z,99694.91
2023-01-19T10:30:01.521Z,99702.47
2023-01-19T10:32:32.639Z,99681.44
2023-01-19T10:34:59.775Z,99679.53
2023-01-19T10:37:33.966Z,99689.75
2023-01-19T10:40:19.757Z,99695.41
2023-01-19T10:42:46.484Z,99682.41
2023-01-19T10:45:22.818Z,99688.81
2023-01-19T10:47:49.923Z,99696.06
2023-01-19T10:50:34.394Z,99697.63
2023-01-19T10:53:04.571Z,99693.88
2023-01-19T10:55:39.831Z,99705.97
2023-01-19T10:58:25.527Z,99689.63
2023-01-19T11:00:52.340Z,99694.53
2023-01-19T11:03:29.205Z,99696.56
2023-01-19T11:06:15.607Z,99698.59
2023-01-19T11:08:47.196Z,99694.84
2023-01-19T11:11:14.065Z,99691.53
2023-01-19T11:13:42.073Z,99690.78
2023-01-19T11:16:25.419Z,99690.78
2023-01-19T11:18:53.878Z,99689.84
2023-01-19T11:21:25.994Z,99697.06
2023-01-19T11:23:58.517Z,99697.06
2023-01-19T11:26:47.881Z,99687.47
2023-01-19T11:29:19.960Z,99697.69
2023-01-19T11:31:46.600Z,99699.28
2023-01-19T11:34:33.195Z,99699.28
2023-01-19T11:37:03.075Z,99696.78
2023-01-19T11:39:31.449Z,99691.91
2023-01-19T11:42:03.680Z,99699.13
2023-01-19T11:44:36.485Z,99694.25
2023-01-19T11:47:11.765Z,99695.06
2023-01-19T11:49:50.174Z,99708.38
2023-01-19T11:52:27.051Z,99695.84
2023-01-19T11:55:14.596Z,99710.28
2023-01-19T11:57:50.686Z,99709.97
2023-01-19T12:00:24.540Z,99709.81
2023-01-19T12:02:58.451Z,99718.75
2023-01-19T12:05:31.655Z,99715.91
2023-01-19T12:08:06.428Z,99723.00
2023-01-19T12:10:38.249Z,99725.38
2023-01-19T12:13:04.823Z,99725.38
2023-01-19T12:15:41.438Z,99712.63
2023-01-19T12:18:16.309Z,99718.13
2023-01-19T12:20:51.908Z,99736.19
2023-01-19T12:23:43.815Z,99732.59
2023-01-19T12:26:15.959Z,99722.84
2023-01-19T12:28:46.990Z,99724.44
2023-01-19T12:31:23.163Z,99732.59
2023-01-19T12:33:50.489Z,99744.50
2023-01-19T12:36:16.806Z,99745.31
2023-01-19T12:38:53.863Z,99751.75
2023-01-19T12:41:36.593Z,99746.09
2023-01-19T12:44:12.181Z,99748.47
2023-01-19T12:46:45.922Z,99742.81
2023-01-19T12:49:20.737Z,99736.38
2023-01-19T12:51:48.786Z,99745.16
2023-01-19T12:54:28.703Z,99739.22
2023-01-19T12:57:24.089Z,99752.38
2023-01-19T12:59:59.055Z,99743.59
2023-01-19T13:02:28.550Z,99747.06
2023-01-19T13:05:07.164Z,99744.25
2023-01-19T13:08:01.575Z,99766.84
2023-01-19T13:10:54.553Z,99761.19
2023-01-19T13:13:27.252Z,99757.09
2023-01-19T13:15:56.011Z,99770.28
2023-01-19T13:18:26.256Z,99766.69
2023-01-19T13:21:01.751Z,99774.69
2023-01-19T13:23:49.809Z,99763.56
2023-01-19T13:26:21.580Z,99780.66
2023-01-19T13:28:54.724Z,99771.41
2023-01-19T13:31:23.043Z,99773.78
2023-01-19T13:33:53.414Z,99773.31
2023-01-19T13:36:26.172Z,99774.22
2023-01-19T13:38:54.188Z,99778.66
2023-01-19T13:41:25.159Z,99783.34
2023-01-19T13:44:01.324Z,99781.47
2023-01-19T13:46:29.092Z,99786.97
2023-01-19T13:49:01.103Z,99782.09
2023-01-19T13:51:27.509Z,99787.44
2023-01-19T13:53:58.377Z,99791.34
2023-01-19T13:56:29.581Z,99785.06
2023-01-19T13:59:06.998Z,99773.00
2023-01-19T14:01:33.632Z,99778.34
2023-01-19T14:04:00.286Z,99781.63
2023-01-19T14:06:35.291Z,99779.13
2023-01-19T14:09:17.794Z,99784.47
2023-01-19T14:12:14.394Z,99789.66
2023-01-19T14:14:42.647Z,99797.66
2023-01-19T14:17:24.007Z,99798.91
2023-01-19T14:19:57.760Z,99811.78
2023-01-19T14:22:41.724Z,99813.94
2023-01-19T14:25:27.953Z,99817.13
2023-01-19T14:28:31.955Z,99831.25
2023-01-19T14:31:04.555Z,99824.47
2023-01-19T14:33:45.978Z,99824.47
2023-01-19T14:36:27.751Z,99831.72
2023-01-19T14:38:57.901Z,99827.00
2023-01-19T14:41:48.048Z,99838.91
2023-01-19T14:44:36.853Z,99838.13
2023-01-19T14:47:04.912Z,99845.38
2023-01-19T14:49:36.063Z,99851.81
2023-01-19T14:52:07.652Z,99852.56
2023-01-19T14:54:40.315Z,99848.97
2023-01-19T14:57:12.319Z,99863.09
2023-01-19T14:59:38.722Z,99858.22
2023-01-19T15:02:05.645Z,99862.78
2023-01-19T15:04:32.117Z,99863.56
2023-01-19T15:06:58.579Z,99865.47
2023-01-19T15:09:25.310Z,99865.47
2023-01-19T15:11:52.590Z,99868.28
2023-01-19T15:14:20.755Z,99868.44
2023-01-19T15:16:47.913Z,99879.13
2023-01-19T15:19:16.492Z,99873.63
2023-01-19T15:21:43.068Z,99875.66
2023-01-19T15:24:10.128Z,99883.19
2023-01-19T15:26:38.262Z,99895.31
2023-01-19T15:29:17.753Z,99898.25
2023-01-19T15:31:44.602Z,99901.88
2023-01-19T15:34:13.368Z,99896.34
2023-01-19T15:36:40.435Z,99908.31
2023-01-19T15:39:08.067Z,99907.19
2023-01-19T15:41:34.694Z,99920.38
2023-01-19T15:44:01.164Z,99922.91
2023-01-19T15:46:27.645Z,99917.25
2023-01-19T15:48:54.455Z,99919.28
2023-01-19T15:51:23.305Z,99926.97
2023-01-19T15:53:50.127Z,99922.59
2023-01-19T15:56:27.894Z,99933.88
2023-01-19T15:58:55.615Z,99933.22
2023-01-19T16:01:25.741Z,99940.44
2023-01-19T16:03:52.271Z,99936.84
2023-01-19T16:06:18.733Z,99939.31
2023-01-19T16:08:45.558Z,99956.28
2023-01-19T16:11:14.670Z,99952.34
2023-01-19T16:13:46.090Z,99954.38
2023-01-19T16:16:16.472Z,99947.72
2023-01-19T16:18:43.120Z,99957.34
2023-01-19T16:21:09.963Z,99960.63
2023-01-19T16:23:36.408Z,99955.09
2023-01-19T16:26:09.365Z,99961.06
2023-01-19T16:28:37.443Z,99964.81
2023-01-19T16:31:04.535Z,99959.00
2023-01-19T16:33:30.965Z,99970.16
2023-01-19T16:35:57.443Z,99971.38
2023-01-19T16:38:24.025Z,99968.25
2023-01-19T16:40:50.468Z,99969.47
2023-01-19T16:43:18.183Z,99979.22
2023-01-19T16:46:04.914Z,99982.19
2023-01-19T16:48:32.246Z,99985.47
2023-01-19T16:51:03.872Z,99992.03
2023-01-19T16:53:31.325Z,99996.06
2023-01-19T16:55:57.754Z,100000.50
2023-01-19T16:58:24.271Z,99996.66
2023-01-19T17:00:50.721Z,99998.22
2023-01-19T17:03:17.215Z,100004.34
2023-01-19T17:05:49.365Z,100001.19
2023-01-19T17:08:17.576Z,100016.56
2023-01-19T17:10:44.038Z,100019.84
2023-01-19T17:13:10.483Z,99999.06
2023-01-19T17:15:36.993Z,100017.94
2023-01-19T17:18:03.544Z,100020.75
2023-01-19T17:20:29.939Z,100023.22
2023-01-19T17:22:56.704Z,100020.06
2023-01-19T17:25:23.271Z,100024.16
2023-01-19T17:27:49.693Z,100021.78
2023-01-19T17:30:16.544Z,100012.66
2023-01-19T17:32:43.093Z,100029.13
2023-01-19T17:35:10.228Z,100034.78
2023-01-19T17:37:36.658Z,100027.22
2023-01-19T17:40:03.459Z,100041.31
2023-01-19T17:42:29.875Z,100034.09
2023-01-19T17:44:56.295Z,100043.81
2023-01-19T17:47:25.701Z,100050.69
2023-01-19T17:49:52.296Z,100057.59
2023-01-19T17:52:18.745Z,100056.00
2023-01-19T17:54:45.159Z,100058.50
2023-01-19T17:57:11.931Z,100057.81
2023-01-19T17:59:40.878Z,100062.56
2023-01-19T18:02:09.874Z,100059.50
2023-01-19T18:04:39.697Z,100068.34
2023-01-19T18:07:06.207Z,100063.91
2023-01-19T18:09:32.624Z,100063.25
2023-01-19T18:11:59.110Z,100061.22
2023-01-19T18:14:25.557Z,100071.25
2023-01-19T18:16:51.973Z,100070.91
2023-01-19T18:19:21.138Z,100064.63
2023-01-19T18:21:48.301Z,100075.47
2023-01-19T18:24:14.778Z,100072.72
2023-01-19T18:26:42.470Z,100079.97
2023-01-19T18:29:08.896Z,100075.53
2023-01-19T18:31:35.568Z,100080.09
2023-01-19T18:34:02.061Z,100087.75
2023-01-19T18:36:28.657Z,100089.00
2023-01-19T18:38:55.146Z,100091.81
2023-01-19T18:41:21.845Z,100082.34
2023-01-19T18:43:49.282Z,100091.13
2023-01-19T18:46:16.394Z,100089.22
2023-01-19T18:48:42.912Z,100090.78
2023-01-19T18:51:13.260Z,100095.66
2023-01-19T18:53:40.573Z,100100.50
2023-01-19T18:56:08.128Z,100110.22
2023-01-19T18:58:38.039Z,100107.03
2023-01-19T19:01:05.494Z,100099.81
2023-01-19T19:03:31.934Z,100097.91
2023-01-19T19:06:02.460Z,100094.41
2023-01-19T19:08:29.086Z,100110.41
2023-01-19T19:10:55.545Z,100114.84
2023-01-19T19:13:22.110Z,100115.28
2023-01-19T19:15:48.944Z,100115.72
2023-01-19T19:18:16.196Z,100117.78
2023-01-19T19:20:43.324Z,100118.22
2023-01-19T19:23:10.709Z,100110.66
2023-01-19T19:25:37.526Z,100125.09
2023-01-19T19:28:04.294Z,100127.13
2023-01-19T19:30:30.745Z,100123.94
2023-01-19T19:32:58.838Z,100119.69
2023-01-19T19:35:25.795Z,100122.84
2023-01-19T19:37:57.193Z,100126.88
2023-01-19T19:40:25.270Z,100130.97
2023-01-19T19:42:51.716Z,100124.97
2023-01-19T19:45:18.257Z,100136.25
2023-01-19T19:47:45.027Z,100134.31
2023-01-19T19:50:11.839Z,100130.25
2023-01-19T19:52:40.704Z,100130.25
2023-01-19T19:55:08.630Z,100127.88
2023-01-19T19:57:35.672Z,100138.38
2023-01-19T20:00:02.979Z,100136.00
2023-01-19T20:02:36.552Z,100130.38
2023-01-19T20:05:03.163Z,100144.91
2023-01-19T20:07:29.607Z,100146.16
2023-01-19T20:09:56.073Z,100147.41
2023-01-19T20:12:22.511Z,100146.59
2023-01-19T20:14:49.438Z,100161.13
2023-01-19T20:17:15.832Z,100161.13
2023-01-19T20:19:43.704Z,100157.97
2023-01-19T20:22:10.114Z,100165.22
2023-01-19T20:24:36.553Z,100176.50
2023-01-19T20:27:03.226Z,100177.03
2023-01-19T20:29:30.564Z,100177.38
2023-01-19T20:31:57.241Z,100184.59
2023-01-19T20:34:28.104Z,100183.81
2023-01-19T20:37:12.663Z,100187.84
2023-01-19T20:39:39.059Z,100201.16
2023-01-19T20:42:09.540Z,100199.56
2023-01-19T20:44:36.256Z,100200.81
2023-01-19T20:47:04.199Z,100206.56
2023-01-19T20:49:31.667Z,100200.94
2023-01-19T20:51:58.110Z,100199.22
2023-01-19T20:54:27.762Z,100214.59
2023-01-19T20:56:54.314Z,100214.59
2023-01-19T20:59:20.791Z,100223.81
2023-01-19T21:01:48.578Z,100214.59
2023-01-19T21:04:15.821Z,100224.28
2023-01-19T21:06:42.270Z,100222.34
2023-01-19T21:09:10.364Z,100226.31
2023-01-19T21:11:38.251Z,100234.41
2023-01-19T21:14:04.984Z,100235.22
2023-01-19T21:16:33.443Z,100241.63
2023-01-19T21:18:59.923Z,100249.31
2023-01-19T21:21:31.469Z,100258.97
2023-01-19T21:24:00.218Z,100251.31
2023-01-19T21:26:29.595Z,100255.38
2023-01-19T21:29:00.529Z,100253.00
2023-01-19T21:31:28.329Z,100254.56
2023-01-19T21:33:56.199Z,100255.00
2023-01-19T21:36:23.439Z,100260.66
2023-01-19T21:38:52.913Z,100262.69
2023-01-19T21:41:19.961Z,100258.28
2023-01-19T21:43:46.568Z,100274.41
2023-01-19T21:46:18.159Z,100270.81
2023-01-19T21:48:45.780Z,100287.72
2023-01-19T21:51:12.947Z,100282.97
2023-01-19T21:53:40.285Z,100294.56
2023-01-19T21:56:08.643Z,100295.38
2023-01-19T21:58:35.168Z,100286.66
2023-01-19T22:01:04.594Z,100298.66
2023-01-19T22:03:31.215Z,100309.94
2023-01-19T22:06:04.272Z,100304.28
2023-01-19T22:08:30.740Z,100305.50
2023-01-19T22:10:57.139Z,100313.19
2023-01-19T22:13:23.589Z,100316.44
2023-01-19T22:15:50.030Z,100307.63
2023-01-19T22:18:16.504Z,100312.81
2023-01-19T22:20:42.904Z,100316.44
2023-01-19T22:23:10.110Z,100313.25
2023-01-19T22:25:36.551Z,100322.09
2023-01-19T22:28:03.372Z,100331.75
2023-01-19T22:30:29.914Z,100324.53
2023-01-19T22:32:56.448Z,100331.41
2023-01-19T22:35:22.903Z,100336.63
2023-01-19T22:37:49.830Z,100333.44
2023-01-19T22:40:16.652Z,100327.88
2023-01-19T22:42:47.620Z,100337.50
2023-01-19T22:45:15.226Z,100336.34
2023-01-19T22:47:41.896Z,100338.28
2023-01-19T22:50:08.887Z,100341.09
2023-01-19T22:52:35.315Z,100339.16
2023-01-19T22:55:01.808Z,100347.97
2023-01-19T22:57:34.201Z,100336.88
2023-01-19T23:00:00.614Z,100346.38
2023-01-19T23:02:28.661Z,100356.06
2023-01-19T23:04:55.066Z,100346.84
2023-01-19T23:07:21.572Z,100356.06
2023-01-19T23:09:47.982Z,100351.66
2023-01-19T23:12:14.421Z,100352.19
2023-01-19T23:14:40.933Z,100356.16
2023-01-19T23:17:07.341Z,100354.56
2023-01-19T23:19:33.845Z,100363.41
2023-01-19T23:22:00.279Z,100363.84
2023-01-19T23:24:26.726Z,100363.84
2023-01-19T23:26:53.147Z,100359.41
2023-01-19T23:29:19.817Z,100373.84
2023-01-19T23:31:48.451Z,100371.47
2023-01-19T23:34:15.046Z,100369.09
2023-01-19T23:36:42.573Z,100369.91
2023-01-19T23:39:17.942Z,100379.59
2023-01-19T23:41:44.357Z,100383.19
2023-01-19T23:44:10.841Z,100378.81
2023-01-19T23:46:37.547Z,100379.69
2023-01-19T23:49:04.200Z,100384.50
2023-01-19T23:51:32.478Z,100387.69
2023-01-19T23:54:00.400Z,100394.13
2023-01-19T23:56:35.631Z,100403.78
2023-01-19T23:59:20.117Z,100402.22
